Terminal Aerodrome Forecast
Issued by NWS

Home | Current Version | Previous Version | Text Only | Print | Product List | Glossary On
Versions: 1 2 3 4 5 6 7 8 9 10 11 12 13 14 15
000
FTUS45 KABQ 210534
TAFAEG
TAF
KAEG 210534Z 2106/2206 12011KT P6SM VCSH SCT040 BKN070
      TEMPO 2106/2110 6SM -SHRA SCT020 BKN035
     FM211100 VRB06KT P6SM VCSH SCT020 BKN050
     FM211600 VRB06KT P6SM SCT060 BKN100
     FM211900 21008KT P6SM SCT060 BKN100
     FM220100 15007KT P6SM VCSH SCT060 BKN100
      AMD NOT SKED=

USA.gov is the U.S. government's official web portal to all federal, state and local government web resources and services.